Time;durP1;ratioP1;P1;durP2;ratioP2;P2;SDS_P1;SDS_P2;PMS_P1;PMS_P2;Temp;Humidity;BMP_temperature;BMP_pressure;BME280_temperature;BME280_humidity;BME280_pressure;Samples;Min_cycle;Max_cycle;Signal;HPM_P1;HPM_P2
2022/01/28 00:02:51;;;;;;;8.57;4.47;;;;;5.40;102618.00;;;;10451452;28;20255;-78
2022/01/28 00:07:55;;;;;;;11.77;5.03;;;;;5.30;102622.00;;;;10451463;28;20282;-78
2022/01/28 00:39:18;;;;;;;10.97;5.10;;;;;5.00;102669.00;;;;10466544;28;20193;-78
2022/01/28 00:44:20;;;;;;;9.97;4.47;;;;;4.90;102677.00;;;;10482944;28;20932;-78
2022/01/28 00:49:22;;;;;;;15.70;5.30;;;;;4.80;102687.00;;;;10482953;28;20553;-79
2022/01/28 00:54:24;;;;;;;10.60;4.60;;;;;4.70;102691.00;;;;10482471;28;20193;-79
2022/01/28 00:59:26;;;;;;;13.80;5.30;;;;;4.50;102708.00;;;;10466157;28;20197;-79
2022/01/28 01:04:28;;;;;;;11.20;5.13;;;;;4.40;102708.00;;;;10464587;28;20619;-79
2022/01/28 01:09:30;;;;;;;10.10;5.30;;;;;4.30;102699.00;;;;10482150;28;20225;-79
2022/01/28 01:14:32;;;;;;;15.60;6.10;;;;;4.40;102691.00;;;;10464705;28;20198;-79
2022/01/28 01:19:39;;;;;;;18.67;6.07;;;;;4.30;102693.00;;;;10464986;28;20193;-79
2022/01/28 01:24:50;;;;;;;15.27;6.13;;;;;4.10;102697.00;;;;10480914;28;20209;-79
2022/01/28 01:29:52;;;;;;;20.90;8.40;;;;;3.90;102705.00;;;;10448828;28;20185;-79
2022/01/28 01:34:54;;;;;;;14.33;7.23;;;;;3.80;102701.00;;;;10481726;28;20182;-79
2022/01/28 01:39:57;;;;;;;17.17;8.10;;;;;3.60;102706.00;;;;10465031;28;20601;-79
2022/01/28 01:56:20;;;;;;;21.10;7.53;;;;;3.40;102713.00;;;;10379189;28;20245;-79
2022/01/28 02:01:22;;;;;;;15.73;8.00;;;;;3.30;102720.00;;;;10455712;28;20313;-78
2022/01/28 02:06:24;;;;;;;18.83;8.80;;;;;3.30;102726.00;;;;10480891;28;20623;-79
2022/01/28 02:11:26;;;;;;;15.80;8.47;;;;;3.20;102717.00;;;;10464128;28;20221;-78
2022/01/28 02:16:28;;;;;;;17.17;9.43;;;;;3.10;102721.00;;;;10504139;28;20182;-78
2022/01/28 02:21:39;;;;;;;25.90;10.53;;;;;3.00;102717.00;;;;10505555;28;20315;-78
2022/01/28 02:26:41;;;;;;;21.17;9.30;;;;;3.00;102729.00;;;;10471573;28;20201;-79
2022/01/28 02:31:43;;;;;;;21.37;9.70;;;;;3.00;102731.00;;;;10471897;28;20534;-78
2022/01/28 02:36:45;;;;;;;22.93;10.60;;;;;3.10;102735.00;;;;10470828;28;20216;-78
2022/01/28 02:41:51;;;;;;;23.90;10.67;;;;;3.30;102745.00;;;;10438703;28;20213;-78
2022/01/28 02:47:02;;;;;;;21.57;10.10;;;;;3.40;102747.00;;;;10470322;28;20193;-79
2022/01/28 02:52:05;;;;;;;21.80;10.60;;;;;3.30;102734.00;;;;10470466;28;20239;-79
2022/01/28 02:57:08;;;;;;;19.90;10.40;;;;;3.20;102731.00;;;;10503569;28;20213;-79
2022/01/28 03:02:10;;;;;;;21.07;11.23;;;;;3.20;102728.00;;;;10470916;28;20214;-78
2022/01/28 03:07:11;;;;;;;20.57;10.33;;;;;3.20;102728.00;;;;10467421;28;20217;-79
2022/01/28 03:12:17;;;;;;;27.20;11.43;;;;;3.10;102735.00;;;;10468703;28;20186;-78
2022/01/28 03:22:34;;;;;;;25.80;10.90;;;;;3.00;102756.00;;;;10452536;28;20202;-79
2022/01/28 03:27:52;;;;;;;19.20;10.40;;;;;2.90;102745.00;;;;10435865;28;20284;-79
2022/01/28 03:32:54;;;;;;;18.93;10.50;;;;;2.80;102749.00;;;;10485301;28;20200;-79
2022/01/28 03:38:07;;;;;;;22.77;10.23;;;;;2.80;102756.00;;;;10467444;28;20201;-79
2022/01/28 03:43:09;;;;;;;17.90;10.03;;;;;2.70;102762.00;;;;10435353;28;20210;-79
2022/01/28 03:48:11;;;;;;;23.30;9.97;;;;;2.70;102777.00;;;;10484827;28;20190;-79
2022/01/28 03:53:13;;;;;;;19.27;10.80;;;;;2.60;102774.00;;;;10484495;28;20185;-79
2022/01/28 03:58:15;;;;;;;21.70;11.73;;;;;2.60;102790.00;;;;10484056;28;20645;-78
2022/01/28 04:13:49;;;;;;;23.10;11.80;;;;;2.70;102792.00;;;;10466941;28;20208;-78
2022/01/28 04:18:51;;;;;;;26.63;13.10;;;;;2.60;102803.00;;;;10499956;28;20235;-79
2022/01/28 04:23:53;;;;;;;23.67;12.43;;;;;2.60;102804.00;;;;10467580;28;20680;-79
2022/01/28 04:28:55;;;;;;;25.73;12.33;;;;;2.60;102810.00;;;;10449830;28;20243;-78
2022/01/28 04:33:59;;;;;;;21.67;12.83;;;;;2.60;102808.00;;;;10466393;28;20189;-78
2022/01/28 04:39:29;;;;;;;23.00;11.90;;;;;2.60;102819.00;;;;10465017;28;20198;-78
2022/01/28 04:44:48;;;;;;;25.13;11.90;;;;;2.50;102825.00;;;;10449144;28;20221;-78
2022/01/28 05:00:31;;;;;;;29.37;13.00;;;;;2.50;102840.00;;;;10449011;28;20247;-79
2022/01/28 05:31:25;;;;;;;24.40;14.50;;;;;2.70;102840.00;;;;10447313;28;20189;-79
2022/01/28 05:36:34;;;;;;;33.13;14.17;;;;;2.60;102837.00;;;;10447188;28;20228;-79
2022/01/28 05:41:36;;;;;;;24.97;13.50;;;;;2.50;102838.00;;;;10446551;28;20217;-79
2022/01/28 05:46:38;;;;;;;26.67;13.63;;;;;2.40;102848.00;;;;10479784;28;20197;-79
2022/01/28 05:51:41;;;;;;;22.03;13.60;;;;;2.30;102846.00;;;;10463430;28;20196;-79
2022/01/28 05:56:43;;;;;;;25.03;13.77;;;;;2.30;102850.00;;;;10480228;28;20193;-79
2022/01/28 06:01:45;;;;;;;20.47;13.37;;;;;2.20;102850.00;;;;10463027;28;20214;-79
2022/01/28 06:06:47;;;;;;;25.90;12.97;;;;;2.10;102859.00;;;;10462436;28;20338;-78
2022/01/28 06:11:49;;;;;;;26.10;14.43;;;;;2.10;102871.00;;;;10462535;28;20216;-79
2022/01/28 06:16:51;;;;;;;26.50;13.97;;;;;2.00;102869.00;;;;10462631;28;20542;-79
2022/01/28 06:21:53;;;;;;;27.67;13.87;;;;;2.00;102870.00;;;;10462321;28;20214;-80
2022/01/28 06:26:55;;;;;;;24.73;14.33;;;;;2.00;102898.00;;;;10478904;28;20186;-79
2022/01/28 06:31:57;;;;;;;35.17;14.40;;;;;1.90;102914.00;;;;10462067;28;20204;-79
2022/01/28 06:36:59;;;;;;;35.50;15.33;;;;;1.90;102917.00;;;;10445563;28;20697;-79
2022/01/28 06:42:02;;;;;;;37.67;15.20;;;;;1.80;102924.00;;;;10446008;28;20577;-79
2022/01/28 06:47:04;;;;;;;33.87;15.93;;;;;1.90;102941.00;;;;10478414;28;20198;-79
2022/01/28 06:52:06;;;;;;;32.30;14.97;;;;;1.90;102942.00;;;;10437088;28;20194;-79
2022/01/28 06:57:14;;;;;;;37.27;17.47;;;;;1.90;102949.00;;;;10420046;28;20186;-80
2022/01/28 07:02:16;;;;;;;32.33;16.73;;;;;1.90;102956.00;;;;10458868;28;20226;-79
2022/01/28 07:07:22;;;;;;;33.27;16.77;;;;;1.90;102958.00;;;;10446151;28;20269;-79
2022/01/28 07:12:24;;;;;;;38.17;18.90;;;;;1.90;102970.00;;;;10486156;28;20193;-79
2022/01/28 07:17:26;;;;;;;32.47;18.53;;;;;1.90;102981.00;;;;10469320;28;20204;-79
2022/01/28 07:22:27;;;;;;;31.77;18.53;;;;;1.90;102977.00;;;;10467631;28;20210;-80
2022/01/28 07:27:29;;;;;;;34.73;19.10;;;;;1.90;102992.00;;;;10501019;28;20247;-80
2022/01/28 07:32:31;;;;;;;29.67;18.47;;;;;1.90;102989.00;;;;10485076;28;20189;-80
2022/01/28 07:37:33;;;;;;;45.50;19.70;;;;;1.90;103007.00;;;;10484490;28;20197;-80
2022/01/28 07:42:37;;;;;;;35.50;21.87;;;;;2.00;103004.00;;;;10460812;28;20211;-82
2022/01/28 07:47:40;;;;;;;37.73;22.53;;;;;2.10;103009.00;;;;10461832;28;20214;-81
2022/01/28 07:52:42;;;;;;;38.77;23.13;;;;;2.10;103021.00;;;;10493598;28;20197;-80
2022/01/28 07:57:45;;;;;;;44.63;25.00;;;;;2.30;103016.00;;;;10484359;28;20198;-80
2022/01/28 08:02:47;;;;;;;53.27;27.23;;;;;2.40;103033.00;;;;10444923;28;20221;-80
2022/01/28 08:07:49;;;;;;;53.50;30.63;;;;;2.60;103033.00;;;;10461265;28;20218;-80
2022/01/28 08:12:53;;;;;;;67.87;35.73;;;;;2.70;103033.00;;;;10457958;28;20201;-80
2022/01/28 08:17:55;;;;;;;63.03;33.40;;;;;2.80;103036.00;;;;10454876;28;20588;-80
2022/01/28 08:22:57;;;;;;;74.00;35.00;;;;;2.90;103035.00;;;;10443959;28;20214;-81
2022/01/28 08:28:04;;;;;;;64.90;35.17;;;;;3.10;103039.00;;;;10445831;28;20221;-80
2022/01/28 08:33:07;;;;;;;71.70;34.93;;;;;3.20;103059.00;;;;10477690;28;20192;-80
2022/01/28 08:38:24;;;;;;;70.67;36.13;;;;;3.40;103064.00;;;;10451176;28;20580;-80
2022/01/28 08:43:27;;;;;;;83.83;38.53;;;;;3.60;103067.00;;;;10466570;28;20573;-79
2022/01/28 08:48:29;;;;;;;87.20;35.43;;;;;3.80;103070.00;;;;10449100;28;20197;-80
2022/01/28 08:53:31;;;;;;;73.97;34.33;;;;;3.90;103075.00;;;;10483264;28;20664;-81
2022/01/28 08:58:34;;;;;;;83.93;37.57;;;;;4.10;103083.00;;;;10482538;28;20190;-80
2022/01/28 09:03:36;;;;;;;70.60;37.70;;;;;4.10;103082.00;;;;10453308;28;20300;-80
2022/01/28 09:08:39;;;;;;;67.17;36.37;;;;;4.30;103082.00;;;;10418235;28;20221;-82
2022/01/28 09:13:41;;;;;;;78.93;40.30;;;;;4.40;103093.00;;;;10465616;28;20251;-80
2022/01/28 09:18:45;;;;;;;85.13;40.50;;;;;4.50;103071.00;;;;10449148;28;20200;-79
2022/01/28 09:23:47;;;;;;;72.17;33.80;;;;;4.60;103061.00;;;;10413673;28;20264;-80
2022/01/28 09:28:49;;;;;;;73.30;40.93;;;;;4.60;103055.00;;;;10440228;28;20209;-80
2022/01/28 09:33:51;;;;;;;64.80;39.43;;;;;4.80;103060.00;;;;10439727;28;20194;-80
2022/01/28 09:38:53;;;;;;;69.33;36.97;;;;;4.90;103076.00;;;;10431704;28;20201;-80
2022/01/28 09:43:57;;;;;;;74.90;40.57;;;;;5.70;103068.00;;;;10443974;28;20585;-79
2022/01/28 09:49:02;;;;;;;97.67;49.87;;;;;6.20;103084.00;;;;10467231;28;20228;-79
2022/01/28 09:54:04;;;;;;;72.43;40.27;;;;;6.60;103090.00;;;;10474424;28;20200;-80
2022/01/28 09:59:06;;;;;;;59.37;33.97;;;;;6.70;103097.00;;;;10448210;28;20695;-80
2022/01/28 10:04:09;;;;;;;54.50;32.07;;;;;6.80;103101.00;;;;10449114;28;20604;-80
2022/01/28 10:09:18;;;;;;;47.00;28.00;;;;;6.70;103091.00;;;;10472221;28;20248;-80
2022/01/28 10:14:24;;;;;;;37.33;23.73;;;;;6.50;103085.00;;;;10441275;28;20201;-77
2022/01/28 10:19:36;;;;;;;39.87;23.67;;;;;6.10;103084.00;;;;10479975;28;20197;-80
2022/01/28 10:24:38;;;;;;;37.73;24.97;;;;;6.10;103084.00;;;;10464468;28;20213;-80
2022/01/28 10:29:43;;;;;;;47.20;29.27;;;;;6.60;103062.00;;;;10464408;28;20194;-80
2022/01/28 10:34:50;;;;;;;57.40;33.33;;;;;7.60;103059.00;;;;10423614;28;20195;-80
2022/01/28 10:39:57;;;;;;;47.77;28.40;;;;;7.80;103053.00;;;;10494807;28;20208;-80
2022/01/28 10:45:14;;;;;;;55.00;29.57;;;;;8.10;103061.00;;;;10455032;28;20321;-80
2022/01/28 10:50:34;;;;;;;39.00;25.20;;;;;8.30;103066.00;;;;10470677;28;20201;-80
2022/01/28 10:55:39;;;;;;;40.70;28.40;;;;;8.50;103050.00;;;;10453535;28;20189;-79
2022/01/28 11:00:43;;;;;;;52.80;30.40;;;;;8.90;103051.00;;;;10453463;28;20190;-79
2022/01/28 11:05:45;;;;;;;48.10;30.70;;;;;9.20;103057.00;;;;10469608;28;20218;-79
2022/01/28 11:10:47;;;;;;;35.90;24.13;;;;;9.40;103056.00;;;;10458648;28;20237;-79
2022/01/28 11:15:50;;;;;;;33.17;22.30;;;;;9.60;103051.00;;;;10485691;28;20197;-79
2022/01/28 11:21:04;;;;;;;29.47;21.20;;;;;9.80;103049.00;;;;10485547;28;20280;-80
2022/01/28 11:26:15;;;;;;;28.40;20.40;;;;;10.00;103041.00;;;;10452291;28;20214;-79
2022/01/28 11:31:45;;;;;;;34.57;20.37;;;;;10.10;103050.00;;;;10457326;28;20206;-79
2022/01/28 11:36:48;;;;;;;26.47;19.00;;;;;9.90;103046.00;;;;10417894;28;20201;-79
2022/01/28 11:42:04;;;;;;;26.87;18.57;;;;;9.30;103040.00;;;;10485896;28;20202;-79
2022/01/28 11:47:08;;;;;;;28.77;19.30;;;;;8.80;103052.00;;;;10438777;28;20201;-79
2022/01/28 11:52:25;;;;;;;33.47;20.97;;;;;8.90;103047.00;;;;10444007;28;20205;-79
2022/01/28 11:57:28;;;;;;;35.97;19.87;;;;;9.30;103052.00;;;;10442591;28;20749;-79
2022/01/28 12:02:46;;;;;;;30.03;20.17;;;;;9.40;103053.00;;;;10473794;28;20222;-80
2022/01/28 12:07:49;;;;;;;30.17;20.60;;;;;9.10;103050.00;;;;10500224;28;20692;-79
2022/01/28 12:18:06;;;;;;;33.53;21.73;;;;;8.60;103040.00;;;;10466699;28;20243;-80
2022/01/28 12:23:11;;;;;;;32.80;20.77;;;;;8.60;103025.00;;;;10449755;28;20256;-79
2022/01/28 12:28:21;;;;;;;31.57;21.80;;;;;8.40;103023.00;;;;10438063;28;20231;-79
2022/01/28 12:33:25;;;;;;;33.43;21.30;;;;;8.30;103015.00;;;;10454897;28;20200;-79
2022/01/28 12:38:31;;;;;;;34.80;21.30;;;;;7.90;103015.00;;;;10483123;28;20190;-79
2022/01/28 12:43:39;;;;;;;44.50;24.93;;;;;7.80;103014.00;;;;10465961;28;20215;-79
2022/01/28 12:48:49;;;;;;;35.63;22.33;;;;;7.70;103002.00;;;;10449512;28;20190;-80
2022/01/28 12:53:55;;;;;;;43.57;22.90;;;;;7.60;102989.00;;;;10499673;28;20298;-78
2022/01/28 12:58:57;;;;;;;40.07;24.63;;;;;7.50;102990.00;;;;10449032;28;20739;-79
2022/01/28 13:04:16;;;;;;;47.07;24.63;;;;;7.40;102966.00;;;;10449577;28;20302;-79
2022/01/28 13:09:23;;;;;;;44.43;25.33;;;;;7.50;102956.00;;;;10449352;28;20221;-79
2022/01/28 13:14:36;;;;;;;49.73;26.37;;;;;7.40;102942.00;;;;10481627;28;20186;-79
2022/01/28 13:19:39;;;;;;;44.13;24.37;;;;;7.60;102932.00;;;;10424040;28;20244;-81
2022/01/28 13:24:41;;;;;;;44.73;24.93;;;;;7.60;102937.00;;;;10457270;28;21022;-81
2022/01/28 13:29:47;;;;;;;41.03;24.00;;;;;7.80;102931.00;;;;10456907;28;20194;-81
2022/01/28 13:34:59;;;;;;;49.30;26.13;;;;;7.70;102924.00;;;;10482689;28;20284;-81
2022/01/28 13:40:08;;;;;;;48.53;25.60;;;;;7.70;102928.00;;;;10449603;28;20661;-81
2022/01/28 13:45:10;;;;;;;51.73;27.83;;;;;7.80;102932.00;;;;10466170;28;20722;-80
2022/01/28 13:50:22;;;;;;;44.30;23.63;;;;;7.80;102930.00;;;;10481273;28;20216;-79
2022/01/28 13:55:37;;;;;;;55.33;25.97;;;;;7.90;102922.00;;;;10481125;28;20217;-80
2022/01/28 14:00:50;;;;;;;50.33;23.30;;;;;7.80;102937.00;;;;10431549;28;20197;-79
2022/01/28 14:05:59;;;;;;;47.00;24.40;;;;;7.50;102921.00;;;;10447327;28;20213;-80
2022/01/28 14:11:37;;;;;;;58.83;25.63;;;;;7.60;102917.00;;;;10444232;28;20271;-79
2022/01/28 14:16:40;;;;;;;48.20;23.37;;;;;7.70;102911.00;;;;10471337;28;20216;-79
2022/01/28 14:21:43;;;;;;;48.10;24.67;;;;;7.70;102915.00;;;;10494558;28;20201;-79
2022/01/28 14:26:57;;;;;;;44.80;24.40;;;;;7.80;102917.00;;;;10477308;28;20212;-79
2022/01/28 14:32:01;;;;;;;56.60;24.57;;;;;7.70;102914.00;;;;10477262;28;20200;-79
2022/01/28 14:37:05;;;;;;;47.23;23.40;;;;;7.30;102923.00;;;;10511391;28;20239;-79
2022/01/28 14:42:09;;;;;;;48.50;23.23;;;;;7.10;102913.00;;;;10478560;28;20259;-79
2022/01/28 14:47:12;;;;;;;47.47;23.83;;;;;6.90;102920.00;;;;10477970;28;20189;-79
2022/01/28 14:52:19;;;;;;;48.50;25.33;;;;;6.90;102905.00;;;;10477712;28;20197;-79
2022/01/28 14:57:22;;;;;;;56.03;24.37;;;;;6.90;102915.00;;;;10460397;28;20198;-79
2022/01/28 15:02:27;;;;;;;51.87;24.17;;;;;6.90;102913.00;;;;10493759;28;20619;-79
2022/01/28 15:07:31;;;;;;;51.70;26.23;;;;;6.80;102914.00;;;;10477041;28;20253;-80
2022/01/28 15:12:33;;;;;;;56.23;25.73;;;;;6.70;102921.00;;;;10476661;28;20633;-79
2022/01/28 15:17:35;;;;;;;47.20;24.60;;;;;6.70;102932.00;;;;10493558;28;20201;-79
2022/01/28 15:22:37;;;;;;;53.77;28.83;;;;;6.70;102929.00;;;;10487934;28;20213;-79
2022/01/28 15:27:41;;;;;;;54.67;29.63;;;;;6.60;102950.00;;;;10486699;28;20200;-79
2022/01/28 15:38:08;;;;;;;69.03;30.97;;;;;6.40;102951.00;;;;10470058;28;20201;-79
2022/01/28 15:43:10;;;;;;;62.13;30.40;;;;;6.40;102934.00;;;;10453225;28;20209;-79
2022/01/28 15:48:12;;;;;;;67.07;34.10;;;;;6.50;102922.00;;;;10485380;28;20231;-79
2022/01/28 15:53:14;;;;;;;66.63;35.47;;;;;6.50;102929.00;;;;10485193;28;20243;-79
2022/01/28 15:58:17;;;;;;;67.77;33.77;;;;;6.50;102919.00;;;;10468781;28;20202;-80
2022/01/28 16:03:19;;;;;;;82.87;38.57;;;;;6.50;102932.00;;;;10468010;28;20217;-79
2022/01/28 16:08:21;;;;;;;74.83;36.00;;;;;6.60;102927.00;;;;10468290;28;20271;-80
2022/01/28 16:13:39;;;;;;;65.67;36.07;;;;;6.60;102923.00;;;;10469853;28;20300;-79
2022/01/28 16:18:41;;;;;;;63.60;33.33;;;;;6.50;102923.00;;;;10449746;28;20243;-79
2022/01/28 16:23:43;;;;;;;69.80;33.70;;;;;6.50;102898.00;;;;10483300;28;20259;-80
2022/01/28 16:28:45;;;;;;;56.90;32.53;;;;;6.40;102882.00;;;;10467542;28;20193;-79
2022/01/28 16:33:47;;;;;;;62.10;33.00;;;;;6.20;102871.00;;;;10465477;28;20774;-79
2022/01/28 16:38:50;;;;;;;59.93;30.83;;;;;6.10;102848.00;;;;10480810;28;20254;-79
2022/01/28 16:44:04;;;;;;;62.80;32.60;;;;;5.90;102858.00;;;;10474978;28;20216;-79
2022/01/28 16:49:07;;;;;;;59.87;30.13;;;;;5.70;102880.00;;;;10475176;28;20192;-79
2022/01/28 16:54:10;;;;;;;52.33;29.90;;;;;5.70;102881.00;;;;10491111;28;20197;-79
2022/01/28 16:59:12;;;;;;;55.03;28.77;;;;;5.70;102885.00;;;;10507819;28;20529;-79
2022/01/28 17:04:14;;;;;;;59.20;30.33;;;;;5.70;102888.00;;;;10491534;28;20676;-79
2022/01/28 17:09:24;;;;;;;59.50;28.67;;;;;5.80;102891.00;;;;10473357;28;20228;-80
2022/01/28 17:14:26;;;;;;;61.00;33.17;;;;;5.80;102901.00;;;;10465383;28;20182;-78
2022/01/28 17:19:28;;;;;;;63.63;32.30;;;;;5.80;102910.00;;;;10481914;28;20249;-78
2022/01/28 17:24:30;;;;;;;67.23;32.37;;;;;5.70;102919.00;;;;10481992;28;20934;-79
2022/01/28 17:29:39;;;;;;;67.47;31.33;;;;;5.70;102917.00;;;;10464037;28;20247;-79
2022/01/28 17:34:41;;;;;;;68.37;33.03;;;;;5.70;102922.00;;;;10462631;28;20510;-78
2022/01/28 17:39:50;;;;;;;60.90;31.30;;;;;5.70;102918.00;;;;10463977;28;20718;-78
2022/01/28 17:44:54;;;;;;;72.87;34.07;;;;;5.70;102918.00;;;;10448098;28;20213;-79
2022/01/28 17:50:00;;;;;;;69.63;35.33;;;;;5.70;102907.00;;;;10448029;28;20251;-78
2022/01/28 17:55:02;;;;;;;69.13;36.13;;;;;5.60;102897.00;;;;10477916;28;20185;-78
2022/01/28 18:00:06;;;;;;;74.03;35.10;;;;;5.60;102889.00;;;;10423105;28;20198;-78
2022/01/28 18:05:10;;;;;;;57.97;33.53;;;;;5.60;102884.00;;;;10414165;28;20225;-78
2022/01/28 18:10:14;;;;;;;53.13;27.03;;;;;5.50;102874.00;;;;10445557;28;20308;-78
2022/01/28 18:15:17;;;;;;;49.00;27.90;;;;;5.50;102869.00;;;;10476291;28;20243;-79
2022/01/28 18:20:19;;;;;;;43.67;22.83;;;;;5.40;102862.00;;;;10476946;28;20206;-79
2022/01/28 18:25:21;;;;;;;49.37;26.30;;;;;5.30;102836.00;;;;10480791;28;20592;-79
2022/01/28 18:30:23;;;;;;;48.57;27.57;;;;;5.20;102840.00;;;;10464862;28;20247;-79
2022/01/28 18:35:25;;;;;;;51.43;25.50;;;;;5.20;102850.00;;;;10464437;28;20717;-78
2022/01/28 18:40:27;;;;;;;50.73;27.27;;;;;5.10;102854.00;;;;10481212;28;20197;-79
2022/01/28 18:45:39;;;;;;;52.07;26.43;;;;;5.20;102836.00;;;;10464397;28;20237;-78
2022/01/28 18:50:42;;;;;;;53.27;28.77;;;;;5.20;102833.00;;;;10479287;28;20236;-78
2022/01/28 18:55:44;;;;;;;46.67;25.40;;;;;5.10;102816.00;;;;10449132;28;20186;-79
2022/01/28 19:00:49;;;;;;;50.53;26.37;;;;;5.10;102796.00;;;;10455390;28;20198;-79
2022/01/28 19:05:51;;;;;;;43.37;24.67;;;;;5.10;102774.00;;;;10504391;28;20219;-79
2022/01/28 19:10:55;;;;;;;53.80;27.17;;;;;5.00;102767.00;;;;10435946;28;20644;-79
2022/01/28 19:15:57;;;;;;;50.50;26.70;;;;;5.00;102771.00;;;;10473099;28;20186;-79
2022/01/28 19:20:59;;;;;;;55.80;28.33;;;;;4.90;102774.00;;;;10446397;28;20198;-79
2022/01/28 19:26:02;;;;;;;48.63;26.67;;;;;4.90;102761.00;;;;10451057;28;20218;-79
2022/01/28 19:31:04;;;;;;;57.00;27.80;;;;;5.00;102769.00;;;;10470869;28;20193;-79
2022/01/28 19:36:06;;;;;;;57.07;29.47;;;;;5.00;102776.00;;;;10462304;28;20605;-79
2022/01/28 19:41:09;;;;;;;53.20;27.67;;;;;5.00;102764.00;;;;10469378;28;20193;-79
2022/01/28 19:46:11;;;;;;;50.37;27.10;;;;;5.00;102761.00;;;;10470240;28;20214;-79
2022/01/28 19:51:17;;;;;;;45.63;26.30;;;;;5.10;102747.00;;;;10455259;28;20715;-79
2022/01/28 19:56:19;;;;;;;56.07;27.53;;;;;5.10;102760.00;;;;10460382;28;20201;-79
2022/01/28 20:01:20;;;;;;;51.50;27.77;;;;;5.10;102772.00;;;;10469073;28;20231;-79
2022/01/28 20:06:22;;;;;;;47.80;27.33;;;;;5.20;102760.00;;;;10467656;28;20222;-79
2022/01/28 20:11:25;;;;;;;52.10;25.67;;;;;5.20;102762.00;;;;10467932;28;20229;-79
2022/01/28 20:16:27;;;;;;;50.50;26.33;;;;;5.20;102765.00;;;;10459752;28;20198;-79
2022/01/28 20:21:29;;;;;;;57.63;28.60;;;;;5.20;102780.00;;;;10447267;28;20197;-79
2022/01/28 20:26:31;;;;;;;54.97;29.03;;;;;5.20;102740.00;;;;10462573;28;20210;-79
2022/01/28 20:31:34;;;;;;;58.90;28.03;;;;;5.20;102730.00;;;;10450326;28;20198;-79
2022/01/28 20:36:36;;;;;;;58.40;28.90;;;;;5.30;102737.00;;;;10478452;28;20342;-80
2022/01/28 20:41:38;;;;;;;57.10;29.60;;;;;5.30;102749.00;;;;10449606;28;20221;-80
2022/01/28 20:46:40;;;;;;;60.73;28.00;;;;;5.30;102742.00;;;;10435869;28;20638;-81
2022/01/28 20:51:43;;;;;;;57.47;28.40;;;;;5.20;102760.00;;;;10453796;28;20202;-80
2022/01/28 20:56:45;;;;;;;63.23;28.57;;;;;5.30;102766.00;;;;10411743;28;20268;-80
2022/01/28 21:01:47;;;;;;;61.80;28.93;;;;;5.40;102745.00;;;;10408511;28;20244;-79
2022/01/28 21:06:53;;;;;;;68.13;30.47;;;;;5.40;102754.00;;;;10455436;28;20359;-79
2022/01/28 21:11:55;;;;;;;66.40;27.00;;;;;5.50;102744.00;;;;10439037;28;20213;-80
2022/01/28 21:16:59;;;;;;;63.87;31.67;;;;;5.50;102744.00;;;;10429055;28;20240;-80
2022/01/28 21:22:12;;;;;;;64.87;29.90;;;;;5.50;102743.00;;;;10440623;28;20213;-80
2022/01/28 21:27:27;;;;;;;69.03;31.43;;;;;5.50;102738.00;;;;10416074;28;20217;-80
2022/01/28 21:32:33;;;;;;;71.20;31.30;;;;;5.60;102713.00;;;;10461413;28;20193;-82
2022/01/28 21:37:48;;;;;;;68.40;31.70;;;;;5.60;102731.00;;;;10427867;28;20279;-80
2022/01/28 21:42:51;;;;;;;63.30;31.27;;;;;5.60;102729.00;;;;10433206;28;20873;-80
2022/01/28 21:47:53;;;;;;;71.77;32.57;;;;;5.60;102725.00;;;;10420090;28;20297;-80
2022/01/28 21:52:55;;;;;;;68.43;33.93;;;;;5.60;102725.00;;;;10458405;28;20656;-80
2022/01/28 21:57:57;;;;;;;67.30;32.77;;;;;5.60;102729.00;;;;10488235;28;20655;-80
2022/01/28 22:02:59;;;;;;;65.57;33.00;;;;;5.60;102720.00;;;;10507235;28;20262;-80
2022/01/28 22:08:02;;;;;;;68.00;31.97;;;;;5.60;102719.00;;;;10492346;28;20237;-78
2022/01/28 22:13:04;;;;;;;66.67;31.50;;;;;5.60;102696.00;;;;10464918;28;20197;-81
2022/01/28 22:18:06;;;;;;;58.60;31.10;;;;;5.60;102690.00;;;;10456066;28;20190;-80
2022/01/28 22:23:08;;;;;;;57.70;29.27;;;;;5.70;102690.00;;;;10448536;28;20209;-81
2022/01/28 22:28:10;;;;;;;61.77;31.47;;;;;5.70;102694.00;;;;10447091;28;20197;-80
2022/01/28 22:33:12;;;;;;;59.03;29.57;;;;;5.70;102694.00;;;;10471947;28;20288;-80
2022/01/28 22:38:14;;;;;;;56.23;29.60;;;;;5.70;102669.00;;;;10482292;28;20258;-80
2022/01/28 22:43:16;;;;;;;64.97;29.27;;;;;5.70;102641.00;;;;10481942;28;20193;-80
2022/01/28 22:48:19;;;;;;;53.33;26.10;;;;;5.70;102624.00;;;;10441686;28;20199;-80
2022/01/28 22:53:20;;;;;;;54.10;28.00;;;;;5.70;102607.00;;;;10440472;28;20198;-80
2022/01/28 22:58:22;;;;;;;46.23;23.87;;;;;5.60;102583.00;;;;10466820;28;20204;-80
2022/01/28 23:03:24;;;;;;;62.23;29.40;;;;;5.60;102587.00;;;;10492852;28;20217;-80
2022/01/28 23:08:26;;;;;;;54.30;27.23;;;;;5.60;102596.00;;;;10501795;28;20225;-80
2022/01/28 23:13:29;;;;;;;54.83;27.90;;;;;5.60;102608.00;;;;10470413;28;20193;-80
2022/01/28 23:18:31;;;;;;;50.87;28.80;;;;;5.60;102612.00;;;;10470525;28;20224;-80
2022/01/28 23:23:34;;;;;;;52.20;25.73;;;;;5.70;102590.00;;;;10454091;28;20664;-80
2022/01/28 23:28:36;;;;;;;52.40;26.20;;;;;5.70;102588.00;;;;10470378;28;20603;-80
2022/01/28 23:33:38;;;;;;;49.87;26.73;;;;;5.70;102597.00;;;;10453846;28;20706;-81
2022/01/28 23:38:40;;;;;;;38.50;22.30;;;;;5.70;102587.00;;;;10454566;28;20652;-80
2022/01/28 23:43:42;;;;;;;53.87;24.80;;;;;5.80;102585.00;;;;10459559;28;20684;-80
2022/01/28 23:48:44;;;;;;;49.23;26.97;;;;;5.80;102578.00;;;;10497572;28;20193;-79
2022/01/28 23:53:46;;;;;;;55.27;27.77;;;;;5.80;102568.00;;;;10450219;28;20190;-79
2022/01/28 23:58:48;;;;;;;49.00;25.87;;;;;5.80;102561.00;;;;10428102;28;20252;-79
